Terminal Aerodrome Forecast
Issued by NWS Lake Charles, LA

Home | Current Version | Previous Version | Text Only | Print | Product List | Glossary On
Versions: 1 2 3 4 5 6 7 8 9 10 11 12 13 14 15 16 17 18 19 20
000
FTUS44 KLCH 241729
TAFBPT
TAF
KBPT 241729Z 2418/2518 17015G18KT P6SM VCSH SCT025
     FM242000 19015G18KT P6SM SCT025
     FM250000 20008KT P6SM BKN020
     FM250600 VRB04KT 5SM BR OVC009
     FM251400 VRB06KT P6SM FEW010 SCT030=

USA.gov is the U.S. government's official web portal to all federal, state and local government web resources and services.